This is the latest recevied weather packets stored in our database for station/object 9W2KHE-10. If no packets are shown the sender has not sent any weather packets the latest 10 day(s).
| Time | Temp. | Humidity | Pressure | Rain* | Wind** | Luminosity | Snow |
|---|---|---|---|---|---|---|---|
| 1777854043 | 28.33° C | 65% | 1012.4 hPa | - | - | - | - |
| 1777853143 | 28.33° C | 66% | 1012.3 hPa | - | - | - | - |
| 1777852242 | 28.33° C | 65% | 1012.2 hPa | - | - | - | - |
| 1777851342 | 28.33° C | 65% | 1012 hPa | - | - | - | - |
| 1777850442 | 28.33° C | 64% | 1011.6 hPa | - | - | - | - |
| 1777849542 | 28.33° C | 64% | 1011.7 hPa | - | - | - | - |
| 1777848642 | 28.33° C | 64% | 1011.3 hPa | - | - | - | - |
| 1777847742 | 28.33° C | 64% | 1011.4 hPa | - | - | - | - |
| 1777846842 | 28.33° C | 63% | 1011.1 hPa | - | - | - | - |
| 1777845941 | 28.89° C | 60% | 1010.8 hPa | - | - | - | - |
| 1777845041 | 31.11° C | 55% | 1010.6 hPa | - | - | - | - |
| 1777827304 | 29.44° C | 62% | 1012.2 hPa | - | - | - | - |
| 1777826404 | 29.44° C | 63% | 1012.3 hPa | - | - | - | - |
| 1777825504 | 29.44° C | 63% | 1012.5 hPa | - | - | - | - |
| 1777824604 | 29.44° C | 62% | 1012.5 hPa | - | - | - | - |
| 1777823704 | 29.44° C | 62% | 1012.4 hPa | - | - | - | - |
| 1777822804 | 29.44° C | 62% | 1012.4 hPa | - | - | - | - |
| 1777821904 | 29.44° C | 61% | 1012.5 hPa | - | - | - | - |
| 1777821004 | 29.44° C | 62% | 1012.3 hPa | - | - | - | - |
| 1777820103 | 30° C | 62% | 1012.2 hPa | - | - | - | - |
| 1777819206 | 30° C | 62% | 1012 hPa | - | - | - | - |
| 1777818306 | 30° C | 62% | 1012 hPa | - | - | - | - |
| 1777817406 | 30° C | 61% | 1011.6 hPa | - | - | - | - |
| 1777816506 | 30° C | 62% | 1011.4 hPa | - | - | - | - |
| 1777815606 | 30° C | 61% | 1011.2 hPa | - | - | - | - |
* Rain since midnight (hover to see other rain measurements)
** Current wind speed in m/s (hover to see current wind gust speed)